Terminal Aerodrome Forecast
Issued by NWS

Home | Current Version | Previous Version | Text Only | Print | Product List | Glossary On
Versions: 1 2 3 4 5 6 7 8 9 10 11 12 13 14 15 16 17 18 19 20 21 22 23 24 25 26 27
000
FTUS41 KBUF 311100
TAFJHW
TAF
KJHW 311124Z 3112/0112 19007KT 5SM -RA BR OVC080
     FM311400 22011KT P6SM VCSH OVC035
     FM312000 22010KT P6SM VCTS OVC045CB
     FM312300 19006KT P6SM BKN035
     FM010200 20005KT P6SM OVC025
     FM010600 20005KT 3SM BR OVC008
     FM010800 20004KT 1/2SM FG OVC002
      AMD LTD TO CLD VIS AND WIND=

USA.gov is the U.S. government's official web portal to all federal, state and local government web resources and services.